Time;durP1;ratioP1;P1;durP2;ratioP2;P2;SDS_P1;SDS_P2;PMS_P1;PMS_P2;Temp;Humidity;BMP_temperature;BMP_pressure;BME280_temperature;BME280_humidity;BME280_pressure;Samples;Min_cycle;Max_cycle;Signal;HPM_P1;HPM_P2
2022/10/08 00:01:20;;;;;;;7.22;3.03;;;;;;;14.12;48.92;100398.63;3133787;28;20055;-62
2022/10/08 00:02:53;;;;;;;8.85;3.13;;;;;;;14.11;49.00;100395.16;3134290;28;20060;-61
2022/10/08 00:04:25;;;;;;;5.13;2.40;;;;;;;14.11;48.87;100391.69;3133898;28;20052;-62
2022/10/08 00:05:59;;;;;;;5.60;2.40;;;;;;;14.09;49.12;100394.38;3135086;28;20533;-61
2022/10/08 00:07:31;;;;;;;9.50;3.10;;;;;;;14.07;49.28;100393.59;3135085;28;20049;-62
2022/10/08 00:09:07;;;;;;;8.27;2.78;;;;;;;14.06;49.19;100391.06;3134631;28;20056;-61
2022/10/08 00:10:37;;;;;;;9.57;3.08;;;;;;;14.04;49.14;100387.66;3135154;28;20053;-61
2022/10/08 00:12:09;;;;;;;6.03;2.50;;;;;;;14.03;49.01;100386.81;3134655;28;20457;-61
2022/10/08 00:13:43;;;;;;;7.35;2.75;;;;;;;14.02;49.21;100384.28;3132741;28;20320;-61
2022/10/08 00:15:15;;;;;;;7.82;2.53;;;;;;;14.02;49.47;100382.53;3133052;28;20432;-61
2022/10/08 00:16:47;;;;;;;9.85;3.20;;;;;;;14.02;49.15;100374.66;3134197;28;20507;-61
2022/10/08 00:18:18;;;;;;;5.93;2.40;;;;;;;14.02;49.43;100379.91;3134335;28;20052;-61
2022/10/08 00:19:50;;;;;;;7.50;2.65;;;;;;;14.02;49.15;100372.06;3134651;28;20106;-62
2022/10/08 00:21:24;;;;;;;3.53;2.28;;;;;;;13.97;49.27;100360.09;3134195;28;20052;-62
2022/10/08 00:22:56;;;;;;;10.35;2.90;;;;;;;13.95;49.55;100365.41;3134249;28;20048;-61
2022/10/08 00:24:27;;;;;;;5.10;2.80;;;;;;;13.91;49.96;100366.50;3133867;28;20052;-62
2022/10/08 00:26:03;;;;;;;6.53;3.08;;;;;;;13.85;50.02;100351.94;3134324;28;20512;-61
2022/10/08 00:27:35;;;;;;;7.88;3.25;;;;;;;13.89;49.82;100365.72;3134365;28;20048;-61
2022/10/08 00:29:08;;;;;;;7.32;2.50;;;;;;;13.84;49.83;100359.84;3135447;28;20076;-61
2022/10/08 00:30:40;;;;;;;;;;;;;;;13.84;49.78;100365.09;3135965;28;20144;-61
2022/10/08 00:32:12;;;;;;;6.60;2.53;;;;;;;13.84;49.87;100359.84;3135151;28;20033;-61
2022/10/08 00:33:43;;;;;;;10.95;3.00;;;;;;;13.88;50.06;100358.78;3134313;28;20048;-61
2022/10/08 00:35:15;;;;;;;8.73;3.15;;;;;;;13.91;49.90;100368.28;3134448;28;20116;-61
2022/10/08 00:36:51;;;;;;;6.30;2.70;;;;;;;13.93;49.65;100358.56;3134503;28;20056;-61
2022/10/08 00:38:23;;;;;;;11.68;2.17;;;;;;;13.94;49.72;100362.88;3134010;28;20060;-61
2022/10/08 00:39:55;;;;;;;4.68;2.50;;;;;;;13.95;50.00;100359.31;3134908;28;20571;-61
2022/10/08 00:41:32;;;;;;;6.20;2.55;;;;;;;13.93;49.60;100361.16;3135365;28;20135;-61
2022/10/08 00:43:04;;;;;;;7.22;2.70;;;;;;;13.95;49.72;100361.94;3131273;28;20521;-61
2022/10/08 00:44:55;;;;;;;9.02;2.75;;;;;;;13.94;49.57;100361.09;3134936;28;20639;-61
2022/10/08 00:46:31;;;;;;;8.52;2.58;;;;;;;13.94;49.81;100361.09;3134795;28;20053;-61
2022/10/08 00:48:04;;;;;;;4.28;2.28;;;;;;;13.94;49.62;100365.50;3135622;28;20508;-62
2022/10/08 00:49:38;;;;;;;5.90;2.70;;;;;;;13.94;49.90;100365.50;3135151;28;20514;-61
2022/10/08 00:51:11;;;;;;;4.03;2.15;;;;;;;13.94;49.73;100365.50;3135005;28;20558;-62
2022/10/08 00:52:47;;;;;;;6.53;2.55;;;;;;;13.94;49.70;100361.09;3134357;28;20056;-61
2022/10/08 00:54:21;;;;;;;5.63;2.20;;;;;;;13.95;49.99;100361.94;3134320;28;20860;-61
2022/10/08 00:55:53;;;;;;;8.63;2.45;;;;;;;13.94;49.95;100357.66;3134376;28;20065;-61
2022/10/08 00:57:27;;;;;;;4.78;2.10;;;;;;;13.95;50.07;100359.31;3133862;28;20101;-61
2022/10/08 00:59:19;;;;;;;6.78;2.50;;;;;;;13.94;50.10;100361.09;3135272;28;20467;-61
2022/10/08 01:00:52;;;;;;;6.75;3.20;;;;;;;13.92;49.78;100356.88;3140694;28;20114;-60
2022/10/08 01:02:23;;;;;;;7.00;2.95;;;;;;;13.90;50.19;100351.69;3144327;28;20045;-60
2022/10/08 01:03:54;;;;;;;6.78;3.15;;;;;;;13.88;50.40;100351.78;3143955;28;20044;-60
2022/10/08 01:05:38;;;;;;;10.27;2.63;;;;;;;13.89;50.19;100350.84;3143328;28;20048;-60
2022/10/08 01:07:18;;;;;;;6.43;2.83;;;;;;;13.89;49.98;100350.84;3141715;28;20487;-61
2022/10/08 01:08:58;;;;;;;8.88;2.83;;;;;;;13.88;49.98;100343.94;3135675;28;20088;-61
2022/10/08 01:10:39;;;;;;;7.22;2.92;;;;;;;13.88;50.18;100346.53;3142189;28;20052;-61
2022/10/08 01:12:21;;;;;;;9.80;2.35;;;;;;;13.87;50.32;100347.47;3144099;28;20067;-61
2022/10/08 01:14:03;;;;;;;8.82;2.80;;;;;;;13.86;50.45;100339.69;3144088;28;20474;-61
2022/10/08 01:15:41;;;;;;;9.70;3.33;;;;;;;13.82;50.53;100332.94;3143943;28;20048;-61
2022/10/08 01:17:23;;;;;;;8.07;2.63;;;;;;;13.79;50.69;100335.69;3144076;28;20112;-61
2022/10/08 01:19:02;;;;;;;7.75;2.42;;;;;;;13.81;50.52;100334.69;3144175;28;20056;-63
2022/10/08 01:20:39;;;;;;;10.27;2.80;;;;;;;13.79;50.84;100333.91;3143725;28;20045;-60
2022/10/08 01:22:21;;;;;;;7.55;2.72;;;;;;;13.79;50.44;100343.56;3143891;28;20131;-60
2022/10/08 01:25:31;;;;;;;6.43;2.67;;;;;;;13.76;50.52;100333.22;3144029;28;20419;-60
2022/10/08 01:26:37;;;;;;;7.20;2.67;;;;;;;13.72;50.88;100336.91;3143685;28;20135;-60
2022/10/08 01:28:19;;;;;;;10.70;2.80;;;;;;;13.71;50.86;100346.53;3144008;28;20088;-60
2022/10/08 01:29:52;;;;;;;10.05;3.05;;;;;;;13.70;50.93;100326.53;3146457;28;20056;-61
2022/10/08 01:31:29;;;;;;;15.55;3.45;;;;;;;13.69;51.24;100335.28;3146366;28;20055;-60
2022/10/08 01:33:11;;;;;;;10.27;3.17;;;;;;;13.69;51.11;100329.22;3146337;28;20110;-61
2022/10/08 01:34:46;;;;;;;6.45;2.97;;;;;;;13.61;51.11;100322.59;3146321;28;20047;-60
2022/10/08 01:36:21;;;;;;;7.35;2.80;;;;;;;13.64;51.55;100329.44;3146162;28;20505;-61
2022/10/08 01:37:55;;;;;;;13.25;2.80;;;;;;;13.63;51.20;100327.75;3146583;28;20053;-60
2022/10/08 01:39:31;;;;;;;8.23;2.95;;;;;;;13.63;51.49;100327.75;3146132;28;20049;-61
2022/10/08 01:41:09;;;;;;;8.57;2.72;;;;;;;13.60;51.35;100327.88;3146031;28;20053;-61
2022/10/08 01:42:40;;;;;;;8.93;2.85;;;;;;;13.60;51.54;100330.50;3145538;28;20053;-61
2022/10/08 01:44:20;;;;;;;6.78;2.78;;;;;;;13.60;51.58;100333.13;3146366;28;20050;-61
2022/10/08 01:45:57;;;;;;;9.93;2.80;;;;;;;13.56;51.72;100329.81;3146500;28;20052;-60
2022/10/08 01:47:30;;;;;;;6.93;2.85;;;;;;;13.54;51.75;100323.81;3146122;28;20124;-60
2022/10/08 01:49:06;;;;;;;6.13;2.75;;;;;;;13.54;51.78;100325.56;3146027;28;20586;-60
2022/10/08 01:50:43;;;;;;;7.97;3.05;;;;;;;13.50;52.06;100318.81;3146103;28;20079;-60
2022/10/08 01:52:20;;;;;;;7.97;3.35;;;;;;;13.53;52.19;100327.34;3146418;28;20049;-61
2022/10/08 01:53:54;;;;;;;7.07;2.88;;;;;;;13.52;51.80;100328.28;3146197;28;20483;-60
2022/10/08 01:55:27;;;;;;;;;;;;;;;13.47;51.93;100319.81;3134128;28;20307;-60
2022/10/08 01:57:00;;;;;;;8.88;2.95;;;;;;;13.48;52.14;100323.25;3144993;28;19927;-61
2022/10/08 01:58:36;;;;;;;5.40;2.83;;;;;;;13.47;51.96;100325.03;3145840;28;20130;-64
2022/10/08 02:00:12;;;;;;;9.02;3.15;;;;;;;13.45;52.34;100329.50;3146095;28;20099;-64
2022/10/08 02:01:53;;;;;;;6.72;3.15;;;;;;;13.43;52.38;100329.56;3143483;28;20052;-60
2022/10/08 02:03:25;;;;;;;7.72;3.50;;;;;;;13.41;51.92;100328.78;3145909;28;20097;-63
2022/10/08 02:04:56;;;;;;;10.85;2.90;;;;;;;13.41;52.41;100331.41;3146032;28;20428;-60
2022/10/08 02:06:31;;;;;;;8.95;2.90;;;;;;;13.42;52.03;100335.72;3145932;28;20048;-60
2022/10/08 02:08:03;;;;;;;10.95;2.60;;;;;;;13.41;52.07;100327.94;3146125;28;20570;-60
2022/10/08 02:09:37;;;;;;;6.38;2.90;;;;;;;13.40;52.50;100332.34;3145853;28;20041;-60
2022/10/08 02:11:09;;;;;;;8.30;2.72;;;;;;;13.36;52.54;100329.94;3146044;28;20064;-60
2022/10/08 02:12:42;;;;;;;10.68;2.88;;;;;;;13.38;52.49;100328.94;3145548;28;20056;-60
2022/10/08 02:14:14;;;;;;;10.48;4.10;;;;;;;13.37;52.46;100329.88;3145857;28;20053;-60
2022/10/08 02:15:55;;;;;;;6.53;3.38;;;;;;;13.34;52.44;100334.38;3145920;28;20048;-61
2022/10/08 02:17:35;;;;;;;8.82;2.92;;;;;;;13.36;52.49;100333.41;3145901;28;20414;-62
2022/10/08 02:19:11;;;;;;;7.03;3.00;;;;;;;13.36;52.17;100343.84;3145872;28;20044;-61
2022/10/08 02:20:50;;;;;;;18.40;3.03;;;;;;;13.34;52.30;100335.25;3145562;28;20551;-61
2022/10/08 02:22:27;;;;;;;8.63;2.90;;;;;;;13.34;52.67;100339.63;3142767;28;20048;-61
2022/10/08 02:24:07;;;;;;;5.15;2.58;;;;;;;13.33;52.43;100338.78;3146011;28;20618;-60
2022/10/08 02:25:44;;;;;;;9.40;2.92;;;;;;;13.32;52.56;100334.47;3146129;28;20060;-60
2022/10/08 02:27:21;;;;;;;8.32;3.42;;;;;;;13.31;52.21;100335.41;3145360;28;20041;-61
2022/10/08 02:28:58;;;;;;;9.48;2.67;;;;;;;13.30;52.58;100331.06;3145491;28;20102;-61
2022/10/08 02:30:37;;;;;;;7.55;3.05;;;;;;;13.29;52.40;100339.84;3145410;28;20106;-60
2022/10/08 02:32:18;;;;;;;7.13;3.22;;;;;;;13.27;52.27;100339.06;3146152;28;20067;-61
2022/10/08 02:33:55;;;;;;;11.45;3.13;;;;;;;13.22;52.64;100335.78;3145582;28;20049;-61
2022/10/08 02:35:34;;;;;;;7.18;3.42;;;;;;;13.18;52.60;100329.03;3145293;28;20059;-61
2022/10/08 02:37:09;;;;;;;9.50;2.78;;;;;;;13.15;52.90;100331.78;3145273;28;20072;-60
2022/10/08 02:38:49;;;;;;;5.93;2.72;;;;;;;13.13;52.50;100331.88;3145212;28;20194;-60
2022/10/08 02:40:23;;;;;;;6.25;3.05;;;;;;;13.12;52.72;100332.75;3145433;28;20048;-61
2022/10/08 02:41:59;;;;;;;4.63;2.30;;;;;;;13.11;52.87;100336.31;3142434;28;20048;-60
2022/10/08 02:43:34;;;;;;;6.63;3.15;;;;;;;13.11;52.66;100327.63;3138039;28;20041;-61
2022/10/08 02:45:10;;;;;;;4.60;2.92;;;;;;;13.09;52.83;100326.84;3145170;28;20490;-63
2022/10/08 02:46:47;;;;;;;10.60;3.80;;;;;;;13.08;53.06;100327.78;3145720;28;20178;-61
2022/10/08 02:48:26;;;;;;;8.95;3.90;;;;;;;13.06;53.17;100327.81;3145145;28;20137;-61
2022/10/08 02:50:01;;;;;;;11.20;3.75;;;;;;;13.05;52.79;100327.91;3145559;28;20060;-63
2022/10/08 02:51:37;;;;;;;7.85;4.03;;;;;;;13.00;52.96;100330.72;3145037;28;20098;-61
2022/10/08 02:53:13;;;;;;;9.23;3.92;;;;;;;12.94;53.24;100331.88;3139734;28;20045;-61
2022/10/08 02:54:49;;;;;;;8.10;4.30;;;;;;;12.92;53.37;100333.69;3138978;28;20052;-64
2022/10/08 02:56:25;;;;;;;9.23;3.50;;;;;;;12.86;53.58;100328.75;3138773;28;20098;-60
2022/10/08 02:58:03;;;;;;;14.32;3.70;;;;;;;12.82;53.41;100326.38;3145439;28;20121;-61
2022/10/08 02:59:34;;;;;;;10.48;4.22;;;;;;;12.79;53.79;100336.97;3145170;28;20053;-61
2022/10/08 03:01:12;;;;;;;14.25;4.30;;;;;;;12.77;53.48;100339.63;3145398;28;20099;-60
2022/10/08 03:02:57;;;;;;;10.20;3.90;;;;;;;12.71;53.66;100342.53;3145174;28;22021;-61
2022/10/08 03:04:35;;;;;;;10.80;4.07;;;;;;;12.67;53.66;100333.97;3144988;28;20044;-62
2022/10/08 03:06:09;;;;;;;10.57;3.90;;;;;;;12.65;53.44;100332.34;3135430;28;20056;-62
2022/10/08 03:07:42;;;;;;;9.38;3.42;;;;;;;12.62;54.06;100338.56;3144851;28;20059;-62
2022/10/08 03:09:16;;;;;;;6.57;3.40;;;;;;;12.58;53.74;100328.34;3144905;28;20128;-62
2022/10/08 03:10:48;;;;;;;7.75;3.38;;;;;;;12.52;54.28;100335.50;3145167;28;20048;-61
2022/10/08 03:12:20;;;;;;;6.80;3.83;;;;;;;12.50;54.46;100331.28;3144986;28;20048;-61
2022/10/08 03:13:57;;;;;;;11.00;3.85;;;;;;;12.47;54.57;100328.81;3145302;28;20048;-62
2022/10/08 03:15:29;;;;;;;7.28;3.35;;;;;;;12.43;54.27;100332.47;3144900;28;20048;-61
2022/10/08 03:17:01;;;;;;;12.07;3.33;;;;;;;12.42;54.52;100329.03;3145188;28;20048;-62
2022/10/08 03:18:33;;;;;;;7.05;3.08;;;;;;;12.43;54.38;100332.47;3144893;28;20417;-62
2022/10/08 03:20:09;;;;;;;6.82;3.50;;;;;;;12.42;54.62;100338.59;3145263;28;20441;-62
2022/10/08 03:21:43;;;;;;;9.15;3.50;;;;;;;12.41;54.21;100332.53;3144420;28;20040;-62
2022/10/08 03:23:17;;;;;;;9.48;3.60;;;;;;;12.39;54.53;100329.13;3144515;28;20059;-62
2022/10/08 03:24:48;;;;;;;9.50;3.05;;;;;;;12.35;54.22;100322.34;3144655;28;20060;-62
2022/10/08 03:26:20;;;;;;;10.45;3.25;;;;;;;12.36;54.77;100336.25;3144879;28;20513;-62
2022/10/08 03:27:51;;;;;;;9.18;3.70;;;;;;;12.34;54.92;100332.88;3144628;28;20064;-62
2022/10/08 03:29:23;;;;;;;7.78;3.60;;;;;;;12.34;54.95;100335.50;3144502;28;20513;-61
2022/10/08 03:30:55;;;;;;;8.88;3.45;;;;;;;12.31;54.63;100326.03;3144565;28;20106;-61
2022/10/08 03:32:27;;;;;;;7.70;3.75;;;;;;;12.31;55.01;100328.63;3144835;28;20146;-62
2022/10/08 03:33:59;;;;;;;9.70;2.97;;;;;;;12.30;54.98;100329.53;3144551;28;20051;-61
2022/10/08 03:35:32;;;;;;;8.13;3.55;;;;;;;12.29;55.01;100328.69;3144189;28;20048;-62
2022/10/08 03:37:04;;;;;;;7.88;3.65;;;;;;;12.29;54.86;100331.31;3144678;28;20056;-62
2022/10/08 03:38:36;;;;;;;5.00;2.90;;;;;;;12.26;55.12;100322.75;3144482;28;20057;-62
2022/10/08 03:40:08;;;;;;;9.00;3.00;;;;;;;12.27;54.71;100321.84;3144625;28;20049;-62
2022/10/08 03:41:40;;;;;;;10.50;3.42;;;;;;;12.28;54.74;100323.56;3144267;28;20078;-62
2022/10/08 03:43:11;;;;;;;6.18;3.30;;;;;;;12.28;54.87;100324.41;3144617;28;20063;-61
2022/10/08 03:44:43;;;;;;;8.70;3.30;;;;;;;12.30;54.67;100319.09;3144610;28;20041;-62
2022/10/08 03:46:15;;;;;;;9.63;2.75;;;;;;;12.20;55.16;100307.38;3144435;28;20060;-62
2022/10/08 03:47:51;;;;;;;7.93;2.95;;;;;;;12.19;55.44;100313.50;3144561;28;20055;-62
2022/10/08 03:49:22;;;;;;;9.70;3.20;;;;;;;12.20;55.36;100315.19;3145008;28;20131;-62
2022/10/08 03:50:57;;;;;;;6.05;3.60;;;;;;;12.21;55.28;100314.28;3132076;28;20052;-62
2022/10/08 03:52:30;;;;;;;10.07;3.30;;;;;;;12.19;55.12;100308.28;3142951;28;20056;-62
2022/10/08 03:54:01;;;;;;;5.57;3.00;;;;;;;12.18;55.35;100307.41;3144267;28;20049;-62
2022/10/08 03:55:34;;;;;;;6.68;3.17;;;;;;;12.15;55.58;100307.56;3143368;28;20594;-62
2022/10/08 03:57:06;;;;;;;10.30;3.53;;;;;;;12.13;55.33;100306.78;3141540;28;20055;-62
2022/10/08 03:58:37;;;;;;;7.47;3.25;;;;;;;12.12;55.75;100314.69;3144158;28;20045;-62
2022/10/08 04:00:10;;;;;;;5.13;2.75;;;;;;;12.06;55.49;100310.56;3144247;28;20421;-62
2022/10/08 04:01:41;;;;;;;7.82;2.92;;;;;;;12.04;56.10;100313.25;3144485;28;20080;-62
2022/10/08 04:03:13;;;;;;;9.13;3.55;;;;;;;12.05;55.77;100317.56;3144384;28;20048;-62
2022/10/08 04:04:45;;;;;;;7.40;2.78;;;;;;;12.04;56.04;100312.41;3143711;28;20484;-62
2022/10/08 04:06:18;;;;;;;7.20;2.47;;;;;;;12.04;55.83;100310.66;3144104;28;20048;-62
2022/10/08 04:07:49;;;;;;;;;;;;;;;12.00;55.67;100309.06;3145074;28;20583;-62
2022/10/08 04:09:21;;;;;;;7.10;2.92;;;;;;;12.01;55.74;100307.31;3144021;28;20003;-63
2022/10/08 04:10:53;;;;;;;7.65;2.88;;;;;;;12.01;55.88;100308.16;3144127;28;20053;-63
2022/10/08 04:12:24;;;;;;;6.03;2.90;;;;;;;12.01;55.73;100308.16;3144250;28;20454;-63
2022/10/08 04:13:56;;;;;;;7.18;3.28;;;;;;;12.00;55.94;100300.38;3143992;28;20068;-63
2022/10/08 04:15:28;;;;;;;10.65;2.88;;;;;;;12.01;55.92;100302.94;3144147;28;20056;-63
2022/10/08 04:17:00;;;;;;;7.72;3.00;;;;;;;12.01;55.73;100297.72;3144073;28;20044;-62
2022/10/08 04:18:32;;;;;;;9.93;3.88;;;;;;;12.00;55.70;100296.00;3144038;28;20057;-66
2022/10/08 04:20:05;;;;;;;5.50;2.93;;;;;;;12.01;56.03;100302.09;3143244;28;20099;-63
2022/10/08 04:21:39;;;;;;;7.43;3.17;;;;;;;11.96;56.45;100304.06;3144116;28;20318;-63
2022/10/08 04:23:12;;;;;;;7.93;2.90;;;;;;;11.94;56.37;100300.66;3144398;28;20306;-63
2022/10/08 04:24:45;;;;;;;12.57;3.47;;;;;;;11.91;56.59;100301.63;3144336;28;20048;-63
2022/10/08 04:26:17;;;;;;;5.57;3.28;;;;;;;11.90;56.14;100302.56;3142499;28;20059;-63
2022/10/08 04:27:49;;;;;;;7.75;3.05;;;;;;;11.90;56.32;100297.34;3143924;28;20711;-64
2022/10/08 04:29:20;;;;;;;6.03;2.65;;;;;;;11.90;56.32;100299.09;3143375;28;20052;-64
2022/10/08 04:30:56;;;;;;;11.25;3.40;;;;;;;11.91;56.57;100298.19;3144090;28;20414;-64
2022/10/08 04:32:28;;;;;;;11.85;3.63;;;;;;;11.87;56.42;100297.47;3143887;28;20444;-65
2022/10/08 04:34:00;;;;;;;18.80;9.07;;;;;;;11.88;56.45;100303.53;3144133;28;20045;-64
2022/10/08 04:35:36;;;;;;;8.07;3.20;;;;;;;11.91;56.74;100298.19;3143979;28;20068;-63
2022/10/08 04:37:10;;;;;;;10.50;4.40;;;;;;;11.90;56.67;100297.34;3144389;28;20045;-64
2022/10/08 04:38:41;;;;;;;;;;;;;;;11.88;56.72;100299.16;3139187;28;20517;-65
2022/10/08 04:40:13;;;;;;;9.27;3.47;;;;;;;11.90;56.40;100294.72;3142520;28;20027;-65
2022/10/08 04:41:44;;;;;;;13.30;3.17;;;;;;;11.91;56.54;100298.19;3143001;28;20056;-65
2022/10/08 04:43:15;;;;;;;6.10;3.13;;;;;;;11.94;56.19;100292.81;3144010;28;20044;-66
2022/10/08 04:44:47;;;;;;;10.63;3.28;;;;;;;11.94;56.62;100292.81;3143866;28;20347;-65
2022/10/08 04:46:21;;;;;;;10.00;3.20;;;;;;;11.94;56.41;100295.44;3143685;28;20060;-64
2022/10/08 04:47:52;;;;;;;14.18;3.30;;;;;;;11.91;56.22;100295.56;3143722;28;20227;-66
2022/10/08 04:49:27;;;;;;;6.95;2.67;;;;;;;11.92;56.50;100292.91;3144031;28;20056;-65
2022/10/08 04:51:00;;;;;;;7.10;3.10;;;;;;;11.92;56.20;100290.28;3142226;28;20075;-66
2022/10/08 04:52:34;;;;;;;6.93;3.50;;;;;;;11.92;56.26;100290.28;3143807;28;20306;-65
2022/10/08 04:54:05;;;;;;;;;;;;;;;11.88;56.47;100285.25;3144391;28;20109;-65
2022/10/08 04:55:36;;;;;;;5.85;2.70;;;;;;;11.85;56.64;100288.84;3143858;28;19925;-65
2022/10/08 04:57:08;;;;;;;10.55;3.30;;;;;;;11.82;56.24;100289.78;3143764;28;20066;-65
2022/10/08 04:59:01;;;;;;;7.88;3.35;;;;;;;11.81;56.79;100290.72;3144087;28;20040;-67
2022/10/08 05:00:36;;;;;;;5.28;3.30;;;;;;;11.75;56.50;100290.97;3135235;28;20265;-66
2022/10/08 05:02:08;;;;;;;6.72;3.17;;;;;;;11.76;56.56;100297.03;3134040;28;20200;-64
2022/10/08 05:03:42;;;;;;;8.15;3.42;;;;;;;11.74;56.76;100291.03;3134637;28;20070;-66
2022/10/08 05:05:14;;;;;;;7.43;3.15;;;;;;;11.71;57.09;100296.38;3133187;28;20123;-62
2022/10/08 05:06:46;;;;;;;5.20;2.85;;;;;;;11.71;57.08;100297.25;3136718;28;20074;-67
2022/10/08 05:08:19;;;;;;;10.63;3.72;;;;;;;11.71;57.03;100298.97;3136857;28;20044;-67
2022/10/08 05:09:51;;;;;;;6.35;3.28;;;;;;;11.71;56.94;100297.25;3137601;28;20060;-67
2022/10/08 05:11:24;;;;;;;8.80;3.22;;;;;;;11.69;57.25;100298.22;3137465;28;20067;-63
2022/10/08 05:12:56;;;;;;;;;;;;;;;11.64;57.13;100297.56;3137986;28;20135;-63
2022/10/08 05:14:29;;;;;;;6.30;3.50;;;;;;;11.63;57.32;100301.09;3137248;28;19967;-64
2022/10/08 05:16:03;;;;;;;4.93;3.22;;;;;;;11.65;57.19;100300.06;3137112;28;20390;-64
2022/10/08 05:17:35;;;;;;;9.85;3.83;;;;;;;11.65;57.25;100301.84;3136207;28;20067;-64
2022/10/08 05:19:07;;;;;;;10.27;2.93;;;;;;;11.65;57.45;100307.91;3136200;28;20110;-64
2022/10/08 05:20:38;;;;;;;18.60;8.23;;;;;;;11.67;57.49;100308.69;3136618;28;20055;-64
2022/10/08 05:22:10;;;;;;;6.18;3.30;;;;;;;11.70;57.15;100308.56;3136430;28;20528;-63
2022/10/08 05:23:44;;;;;;;8.45;3.20;;;;;;;11.75;56.99;100313.63;3136912;28;20510;-63
2022/10/08 05:25:15;;;;;;;9.98;3.17;;;;;;;11.75;57.40;100306.63;3136628;28;20063;-63
2022/10/08 05:26:49;;;;;;;6.63;2.63;;;;;;;11.80;57.01;100309.03;3135972;28;20484;-64
2022/10/08 05:28:21;;;;;;;7.88;3.13;;;;;;;11.82;56.99;100307.22;3136313;28;20063;-62
2022/10/08 05:29:53;;;;;;;8.55;2.90;;;;;;;11.82;56.96;100317.66;3137214;28;20055;-63
2022/10/08 05:31:27;;;;;;;8.23;3.17;;;;;;;11.85;56.85;100312.34;3135862;28;20055;-62
2022/10/08 05:32:59;;;;;;;6.63;2.80;;;;;;;11.88;56.73;100311.34;3136985;28;20153;-62
2022/10/08 05:34:31;;;;;;;11.70;3.35;;;;;;;11.92;56.90;100315.53;3136311;28;20402;-61
2022/10/08 05:36:03;;;;;;;10.75;3.85;;;;;;;11.94;56.65;100317.16;3136906;28;20044;-62
2022/10/08 05:37:35;;;;;;;6.88;3.47;;;;;;;11.98;56.52;100310.91;3137675;28;20109;-63
2022/10/08 05:39:07;;;;;;;7.35;2.85;;;;;;;12.02;56.47;100319.44;3136416;28;20071;-62
2022/10/08 05:40:39;;;;;;;6.15;3.10;;;;;;;12.05;56.60;100316.72;3136170;28;20044;-61
2022/10/08 05:42:12;;;;;;;8.13;3.30;;;;;;;12.07;56.20;100315.72;3131262;28;20057;-63
2022/10/08 05:43:43;;;;;;;12.55;4.28;;;;;;;12.12;56.35;100319.91;3128441;28;20159;-61
2022/10/08 05:45:15;;;;;;;15.43;3.25;;;;;;;12.15;56.02;100317.16;3136238;28;20059;-64
2022/10/08 05:46:47;;;;;;;7.90;3.47;;;;;;;12.19;56.03;100318.72;3137699;28;20250;-61
2022/10/08 05:48:18;;;;;;;5.78;3.15;;;;;;;12.20;55.87;100316.03;3136533;28;20641;-65
2022/10/08 05:49:50;;;;;;;9.20;3.08;;;;;;;12.28;55.83;100323.56;3137220;28;20237;-62
2022/10/08 05:51:23;;;;;;;7.18;3.33;;;;;;;12.31;55.90;100330.41;3136713;28;20438;-62
2022/10/08 05:52:55;;;;;;;7.03;2.70;;;;;;;12.31;55.96;100325.19;3137817;28;20143;-62
2022/10/08 05:54:28;;;;;;;11.10;3.20;;;;;;;12.40;55.51;100330.84;3136045;28;20052;-62
2022/10/08 05:55:59;;;;;;;;;;;;;;;12.42;55.74;100333.38;3137837;28;20591;-61
2022/10/08 05:57:31;;;;;;;7.53;3.10;;;;;;;12.49;55.34;100332.19;3129825;28;20014;-62
2022/10/08 05:59:02;;;;;;;5.07;3.03;;;;;;;12.57;55.29;100330.09;3126717;28;20056;-60
2022/10/08 06:00:34;;;;;;;9.95;4.07;;;;;;;12.65;55.28;100329.72;3136229;28;20136;-61
2022/10/08 06:02:07;;;;;;;10.30;4.30;;;;;;;12.72;55.20;100331.19;3136767;28;20056;-62
2022/10/08 06:03:39;;;;;;;6.93;3.23;;;;;;;12.79;55.02;100327.34;3136672;28;20060;-62
2022/10/08 06:05:11;;;;;;;8.90;3.08;;;;;;;12.88;54.98;100326.91;3139439;28;20383;-61
2022/10/08 06:06:42;;;;;;;7.78;3.17;;;;;;;12.99;54.61;100331.66;3137514;28;20444;-62
2022/10/08 06:08:14;;;;;;;13.88;4.43;;;;;;;13.05;54.92;100327.91;3140610;28;20519;-68
2022/10/08 06:09:47;;;;;;;10.27;5.60;;;;;;;13.16;54.60;100328.22;3140580;28;20752;-66
2022/10/08 06:11:19;;;;;;;;;;;;;;;13.17;54.38;100329.94;3140744;28;20056;-66
2022/10/08 06:12:51;;;;;;;54.88;27.35;;;;;;;13.23;54.26;100329.66;3140845;28;19996;-67
2022/10/08 06:14:23;;;;;;;10.15;5.32;;;;;;;13.31;54.29;100330.19;3139740;28;20110;-62
2022/10/08 06:15:55;;;;;;;11.07;3.97;;;;;;;13.38;53.92;100318.47;3140118;28;20052;-63
2022/10/08 06:17:27;;;;;;;9.32;4.30;;;;;;;13.58;54.15;100330.59;3140768;28;20413;-63
2022/10/08 06:19:00;;;;;;;9.75;3.13;;;;;;;13.73;53.87;100331.63;3139892;28;20056;-61
2022/10/08 06:20:36;;;;;;;12.80;4.72;;;;;;;13.93;53.59;100329.75;3140315;28;20082;-63
2022/10/08 06:22:07;;;;;;;18.35;5.78;;;;;;;14.07;53.42;100341.22;3140260;28;20141;-63
2022/10/08 06:23:45;;;;;;;10.73;3.83;;;;;;;14.22;53.15;100333.50;3140308;28;20078;-63
2022/10/08 06:25:18;;;;;;;7.15;3.25;;;;;;;14.35;52.67;100337.19;3140756;28;20140;-61
2022/10/08 06:26:50;;;;;;;10.80;3.63;;;;;;;14.51;52.47;100339.84;3127983;28;20114;-61
2022/10/08 06:28:21;;;;;;;10.13;3.50;;;;;;;14.71;52.19;100344.91;3134678;28;20048;-63
2022/10/08 06:29:53;;;;;;;9.88;3.35;;;;;;;14.89;51.70;100335.19;3140559;28;20113;-64
2022/10/08 06:31:24;;;;;;;6.47;3.50;;;;;;;15.13;51.70;100340.03;3140060;28;20080;-62
2022/10/08 06:32:56;;;;;;;9.80;3.72;;;;;;;15.35;51.24;100343.16;3140358;28;20571;-62
2022/10/08 06:34:28;;;;;;;9.88;3.15;;;;;;;15.65;50.74;100340.56;3140241;28;20095;-62
2022/10/08 06:36:02;;;;;;;12.65;3.72;;;;;;;15.92;50.13;100334.66;3139775;28;20094;-61
2022/10/08 06:37:35;;;;;;;14.43;3.30;;;;;;;16.20;49.61;100327.75;3139988;28;20060;-61
2022/10/08 06:39:10;;;;;;;9.35;3.13;;;;;;;16.50;48.94;100338.19;3140555;28;20353;-62
2022/10/08 06:40:44;;;;;;;9.35;3.60;;;;;;;16.79;48.45;100336.44;3140218;28;20319;-66
2022/10/08 06:42:16;;;;;;;8.20;4.03;;;;;;;17.07;47.89;100343.44;3139238;28;20048;-64
2022/10/08 06:43:48;;;;;;;8.43;3.05;;;;;;;17.31;47.13;100342.81;3140313;28;20059;-65
2022/10/08 06:45:20;;;;;;;19.80;3.40;;;;;;;17.50;46.44;100332.75;3140118;28;20274;-65
2022/10/08 06:46:52;;;;;;;7.47;3.40;;;;;;;17.83;45.97;100334.97;3140326;28;20057;-62
2022/10/08 06:48:24;;;;;;;8.25;2.97;;;;;;;18.08;45.02;100326.28;3140282;28;20063;-60
2022/10/08 06:49:56;;;;;;;10.20;3.42;;;;;;;18.30;44.46;100325.66;3139587;28;20071;-60
2022/10/08 06:51:27;;;;;;;12.15;3.75;;;;;;;18.54;43.95;100332.81;3132938;28;20109;-63
2022/10/08 06:52:59;;;;;;;12.10;3.28;;;;;;;18.90;43.78;100321.50;3131091;28;20053;-63
2022/10/08 06:54:54;;;;;;;14.40;3.90;;;;;;;19.34;42.79;100325.31;3137582;28;20052;-62
2022/10/08 06:56:27;;;;;;;7.93;3.10;;;;;;;19.72;42.11;100325.16;3139320;28;20044;-62
2022/10/08 06:57:58;;;;;;;9.43;3.58;;;;;;;20.11;40.91;100323.09;3141773;28;20427;-61
2022/10/08 06:59:30;;;;;;;11.32;3.33;;;;;;;20.45;40.35;100316.03;3142615;28;20125;-64
2022/10/08 07:01:03;;;;;;;15.35;3.97;;;;;;;20.77;39.67;100319.81;3136936;28;20056;-64
2022/10/08 07:02:34;;;;;;;12.25;3.63;;;;;;;21.08;39.35;100323.47;3136613;28;20621;-63
2022/10/08 07:04:07;;;;;;;13.98;3.63;;;;;;;21.42;38.47;100321.59;3134327;28;20245;-62
2022/10/08 07:05:38;;;;;;;7.28;3.40;;;;;;;21.75;38.13;100327.72;3131752;28;22082;-61
2022/10/08 07:07:10;;;;;;;6.43;3.08;;;;;;;22.05;37.49;100321.63;3135484;28;20137;-61
2022/10/08 07:08:41;;;;;;;10.75;3.72;;;;;;;22.31;36.65;100318.63;3127559;28;20052;-60
2022/10/08 07:10:13;;;;;;;9.95;3.67;;;;;;;22.50;35.95;100316.03;3134974;28;20565;-60
2022/10/08 07:11:47;;;;;;;6.25;2.92;;;;;;;22.69;35.85;100316.13;3133070;28;20119;-61
2022/10/08 07:13:17;;;;;;;;;;;;;;;22.95;35.58;100315.63;3130114;28;20118;-60
2022/10/08 07:14:49;;;;;;;8.10;3.28;;;;;;;23.11;35.46;100318.63;3134968;28;19967;-61
2022/10/08 07:16:22;;;;;;;10.88;3.78;;;;;;;23.30;34.74;100317.78;3128366;28;20434;-60
2022/10/08 07:17:54;;;;;;;8.38;3.47;;;;;;;23.51;34.80;100325.63;3132062;28;20448;-61